Time;durP1;ratioP1;P1;durP2;ratioP2;P2;SDS_P1;SDS_P2;PMS_P1;PMS_P2;Temp;Humidity;BMP_temperature;BMP_pressure;BME280_temperature;BME280_humidity;BME280_pressure;Samples;Min_cycle;Max_cycle;Signal;HPM_P1;HPM_P2
2022/12/19 00:01:37;;;;;;;9.13;5.63;;;2.10;99.90;;;;;;5096036;28;20058;-64
2022/12/19 00:04:07;;;;;;;9.88;4.13;;;2.10;99.90;;;;;;5102409;28;20680;-63
2022/12/19 00:06:36;;;;;;;8.65;4.95;;;2.10;99.90;;;;;;5094984;28;20046;-67
2022/12/19 00:09:04;;;;;;;8.55;4.20;;;2.00;99.90;;;;;;5106086;28;20115;-63
2022/12/19 00:11:31;;;;;;;7.80;4.50;;;1.90;99.90;;;;;;5093679;28;20151;-63
2022/12/19 00:13:59;;;;;;;4.93;3.75;;;1.90;99.90;;;;;;5098975;28;20044;-64
2022/12/19 00:16:28;;;;;;;8.77;3.40;;;1.80;99.90;;;;;;5098050;28;20684;-63
2022/12/19 00:18:57;;;;;;;5.43;4.38;;;1.80;99.90;;;;;;5096681;28;20043;-62
2022/12/19 00:21:26;;;;;;;8.20;4.43;;;1.80;99.90;;;;;;5095246;28;20067;-67
2022/12/19 00:23:53;;;;;;;19.38;5.50;;;1.70;99.90;;;;;;5098899;28;20044;-63
2022/12/19 00:26:28;;;;;;;7.38;3.80;;;1.70;99.90;;;;;;5092512;28;20113;-67
2022/12/19 00:28:58;;;;;;;5.45;3.85;;;1.60;99.90;;;;;;5097007;28;20043;-66
2022/12/19 00:31:27;;;;;;;7.32;3.88;;;1.60;99.90;;;;;;5086562;28;20056;-62
2022/12/19 00:33:54;;;;;;;7.47;4.38;;;1.60;99.90;;;;;;5092806;28;20055;-62
2022/12/19 00:36:24;;;;;;;6.97;4.03;;;1.50;99.90;;;;;;5081689;28;20071;-62
2022/12/19 00:38:53;;;;;;;9.48;4.05;;;1.50;99.90;;;;;;5090720;28;20069;-63
2022/12/19 00:41:31;;;;;;;7.65;3.30;;;1.50;99.90;;;;;;5085662;28;20086;-64
2022/12/19 00:44:04;;;;;;;6.50;3.53;;;1.40;99.90;;;;;;5095446;28;20054;-66
2022/12/19 00:46:34;;;;;;;6.47;3.53;;;1.40;99.90;;;;;;5092922;28;20062;-66
2022/12/19 00:49:02;;;;;;;6.10;3.67;;;1.40;99.90;;;;;;5099142;27;20089;-63
2022/12/19 00:51:31;;;;;;;10.48;4.32;;;1.40;99.90;;;;;;5103149;28;20404;-62
2022/12/19 00:53:59;;;;;;;7.85;4.43;;;1.40;99.90;;;;;;5103612;28;20135;-63
2022/12/19 00:56:31;;;;;;;5.10;2.95;;;1.40;99.90;;;;;;5097072;28;20046;-63
2022/12/19 00:59:05;;;;;;;12.50;4.22;;;1.30;99.90;;;;;;5092337;28;20052;-63
2022/12/19 01:01:35;;;;;;;6.60;3.70;;;1.30;99.90;;;;;;5095749;28;20154;-62
2022/12/19 01:04:05;;;;;;;6.43;3.47;;;1.20;99.90;;;;;;5091066;28;20155;-62
2022/12/19 01:06:52;;;;;;;9.07;4.57;;;1.20;99.90;;;;;;5095913;28;21043;-63
2022/12/19 01:09:21;;;;;;;8.57;4.38;;;1.20;99.90;;;;;;5090971;28;20152;-63
2022/12/19 01:14:34;;;;;;;8.10;4.72;;;1.10;99.90;;;;;;5071589;28;20135;-62
2022/12/19 01:17:01;;;;;;;14.57;5.20;;;1.00;99.90;;;;;;5093605;28;20482;-66
2022/12/19 01:19:27;;;;;;;11.27;5.22;;;1.00;99.90;;;;;;5100478;28;20713;-62
2022/12/19 01:21:54;;;;;;;6.75;3.92;;;1.00;99.90;;;;;;5100056;28;20113;-62
2022/12/19 01:24:21;;;;;;;12.32;6.60;;;1.00;99.90;;;;;;5095050;28;20175;-63
2022/12/19 01:26:48;;;;;;;13.48;6.45;;;0.90;99.90;;;;;;5093744;28;20039;-64
2022/12/19 01:29:15;;;;;;;7.65;5.07;;;0.90;99.90;;;;;;5093232;28;20638;-63
2022/12/19 01:31:42;;;;;;;10.23;5.28;;;0.90;99.90;;;;;;5092213;28;20493;-63
2022/12/19 01:34:09;;;;;;;11.90;4.78;;;0.90;99.90;;;;;;5094413;28;20063;-67
2022/12/19 01:36:36;;;;;;;12.63;5.70;;;0.90;99.90;;;;;;5097396;28;20051;-64
2022/12/19 01:39:06;;;;;;;9.73;5.80;;;0.80;99.90;;;;;;5083364;28;20096;-63
2022/12/19 01:41:34;;;;;;;11.50;6.13;;;0.80;99.90;;;;;;5097671;28;20043;-63
2022/12/19 01:44:04;;;;;;;6.40;4.68;;;0.80;99.90;;;;;;5098783;28;20434;-66
2022/12/19 01:46:47;;;;;;;10.02;5.53;;;0.80;99.90;;;;;;5096107;28;20204;-66
2022/12/19 01:49:20;;;;;;;7.32;5.22;;;0.80;99.90;;;;;;5096471;28;20611;-63
2022/12/19 01:51:52;;;;;;;10.60;6.25;;;0.70;99.90;;;;;;5097119;28;20079;-62
2022/12/19 01:54:23;;;;;;;8.43;4.68;;;0.80;99.90;;;;;;5097267;28;20066;-63
2022/12/19 01:56:53;;;;;;;11.30;4.53;;;0.80;99.90;;;;;;5099707;28;20147;-62
2022/12/19 01:59:42;;;;;;;10.23;5.20;;;0.80;99.90;;;;;;5080929;28;20056;-62
2022/12/19 02:02:18;;;;;;;7.65;4.70;;;0.80;99.90;;;;;;5098246;28;20413;-63
2022/12/19 02:04:46;;;;;;;8.85;4.13;;;0.80;99.90;;;;;;5079308;28;20047;-63
2022/12/19 02:07:16;;;;;;;9.63;5.30;;;0.80;99.90;;;;;;5092139;28;21044;-62
2022/12/19 02:09:50;;;;;;;9.68;5.88;;;0.80;99.90;;;;;;5082905;28;20468;-62
2022/12/19 02:12:30;;;;;;;9.25;3.95;;;0.80;99.90;;;;;;5093951;28;20071;-62
2022/12/19 02:14:59;;;;;;;9.98;4.28;;;0.80;99.90;;;;;;5076798;28;20104;-64
2022/12/19 02:17:37;;;;;;;6.97;4.05;;;0.90;99.90;;;;;;5075674;28;20051;-62
2022/12/19 02:20:15;;;;;;;11.50;5.13;;;0.90;99.90;;;;;;5077396;28;20158;-62
2022/12/19 02:23:01;;;;;;;11.45;6.15;;;1.00;99.90;;;;;;5073747;28;20043;-62
2022/12/19 02:25:37;;;;;;;9.00;4.15;;;1.00;99.90;;;;;;5089973;28;20079;-64
2022/12/19 02:28:29;;;;;;;13.68;5.80;;;1.00;99.90;;;;;;5084950;28;20437;-63
2022/12/19 02:31:18;;;;;;;9.05;4.60;;;1.10;99.90;;;;;;5094256;28;20804;-65
2022/12/19 02:33:46;;;;;;;8.82;4.20;;;1.10;99.90;;;;;;5083806;28;20143;-64
2022/12/19 02:36:26;;;;;;;10.32;6.53;;;1.10;99.90;;;;;;5090005;28;20125;-63
2022/12/19 02:39:20;;;;;;;8.57;5.05;;;1.10;99.90;;;;;;5092984;28;20133;-63
2022/12/19 02:41:56;;;;;;;12.38;6.25;;;1.10;99.90;;;;;;5068847;28;20051;-63
2022/12/19 02:44:34;;;;;;;13.38;6.25;;;1.10;99.90;;;;;;5095869;28;20749;-66
2022/12/19 02:47:04;;;;;;;13.65;5.32;;;1.10;99.90;;;;;;5079104;28;20618;-62
2022/12/19 02:49:35;;;;;;;9.73;5.32;;;1.10;99.90;;;;;;5073215;28;20222;-64
2022/12/19 02:52:28;;;;;;;11.13;5.50;;;1.10;99.90;;;;;;5078697;28;20052;-64
2022/12/19 02:55:03;;;;;;;14.02;5.18;;;1.10;99.90;;;;;;5053702;28;20055;-63
2022/12/19 02:57:45;;;;;;;10.93;6.68;;;1.10;99.90;;;;;;5090314;28;20043;-62
2022/12/19 03:00:17;;;;;;;11.10;5.90;;;1.00;99.90;;;;;;5089446;28;20048;-63
2022/12/19 03:02:53;;;;;;;10.38;6.75;;;1.00;99.90;;;;;;5071654;28;20127;-61
2022/12/19 03:05:49;;;;;;;10.60;5.82;;;1.00;99.90;;;;;;5080650;28;20055;-62
2022/12/19 03:08:37;;;;;;;11.18;5.43;;;1.00;99.90;;;;;;5087952;28;20071;-62
2022/12/19 03:11:08;;;;;;;9.07;5.75;;;1.00;99.90;;;;;;5094966;28;20307;-64
2022/12/19 03:13:52;;;;;;;7.07;5.30;;;1.00;99.90;;;;;;5084147;28;20060;-70
2022/12/19 03:16:19;;;;;;;10.40;5.60;;;1.00;99.90;;;;;;5076417;28;20545;-63
2022/12/19 03:18:46;;;;;;;12.75;5.43;;;1.00;99.90;;;;;;5077301;28;20070;-62
2022/12/19 03:21:42;;;;;;;8.55;5.03;;;1.00;99.90;;;;;;5093001;28;20431;-62
2022/12/19 03:24:11;;;;;;;10.52;6.03;;;0.90;99.90;;;;;;5090127;28;20058;-62
2022/12/19 03:26:52;;;;;;;10.20;5.53;;;0.90;99.90;;;;;;5093769;28;20058;-67
2022/12/19 03:29:28;;;;;;;11.40;5.88;;;0.90;99.90;;;;;;5095861;28;20044;-63
2022/12/19 03:31:58;;;;;;;11.98;5.78;;;0.80;99.90;;;;;;5098239;28;20051;-64
2022/12/19 03:34:40;;;;;;;14.93;6.05;;;0.80;99.90;;;;;;5095204;28;20441;-62
2022/12/19 03:37:16;;;;;;;14.68;6.35;;;0.80;99.90;;;;;;5094779;28;20159;-65
2022/12/19 03:39:48;;;;;;;14.23;6.60;;;0.80;99.90;;;;;;5088408;28;20052;-65
2022/12/19 03:45:05;;;;;;;10.88;6.80;;;0.80;99.90;;;;;;5094791;28;20519;-62
2022/12/19 03:47:47;;;;;;;15.15;7.75;;;0.80;99.90;;;;;;5095394;28;20482;-65
2022/12/19 03:50:14;;;;;;;12.63;7.03;;;0.80;99.90;;;;;;5099748;28;20142;-64
2022/12/19 03:53:18;;;;;;;13.70;6.85;;;0.70;99.90;;;;;;5090554;28;20039;-65
2022/12/19 03:56:11;;;;;;;14.02;9.48;;;0.80;99.90;;;;;;5093648;28;20050;-63
2022/12/19 03:58:44;;;;;;;16.75;8.65;;;0.80;99.90;;;;;;5089435;28;20047;-67
2022/12/19 04:01:11;;;;;;;20.30;9.90;;;0.80;99.90;;;;;;5093733;28;20059;-63
2022/12/19 04:03:38;;;;;;;24.45;11.27;;;0.80;99.90;;;;;;5100045;28;20212;-66
2022/12/19 04:06:05;;;;;;;20.25;10.68;;;0.80;99.90;;;;;;5093644;28;20056;-61
2022/12/19 04:08:34;;;;;;;19.70;9.82;;;0.80;99.90;;;;;;5092882;28;20147;-64
2022/12/19 04:11:06;;;;;;;24.25;11.20;;;0.80;99.90;;;;;;5095315;28;20085;-62
2022/12/19 04:13:52;;;;;;;18.58;10.80;;;0.80;99.90;;;;;;5097328;28;20457;-62
2022/12/19 04:16:22;;;;;;;21.55;9.98;;;0.70;99.90;;;;;;5095221;28;20377;-64
2022/12/19 04:18:56;;;;;;;;;;;0.80;99.90;;;;;;5098703;28;20134;-63
2022/12/19 04:21:39;;;;;;;21.83;9.73;;;0.80;99.90;;;;;;5093534;28;20023;-62
2022/12/19 04:24:15;;;;;;;21.88;10.68;;;0.80;99.90;;;;;;5097653;28;20054;-63
2022/12/19 04:26:46;;;;;;;18.58;9.23;;;0.80;99.90;;;;;;5092288;28;20043;-64
2022/12/19 04:29:14;;;;;;;25.00;10.45;;;0.80;99.90;;;;;;5100022;28;20050;-62
2022/12/19 04:31:42;;;;;;;18.58;9.70;;;0.80;99.90;;;;;;5099227;28;20371;-63
2022/12/19 04:34:09;;;;;;;16.60;9.60;;;0.80;99.90;;;;;;5102498;27;20657;-62
2022/12/19 04:36:36;;;;;;;16.23;9.50;;;0.80;99.90;;;;;;5097397;28;20048;-62
2022/12/19 04:39:03;;;;;;;16.90;10.00;;;0.80;99.90;;;;;;5098003;28;20048;-63
2022/12/19 04:41:30;;;;;;;21.42;11.07;;;0.80;99.90;;;;;;5096991;28;20044;-63
2022/12/19 04:43:57;;;;;;;13.07;9.07;;;0.80;99.90;;;;;;5099591;28;20416;-63
2022/12/19 04:46:24;;;;;;;16.60;9.38;;;0.80;99.90;;;;;;5098604;28;20059;-62
2022/12/19 04:48:51;;;;;;;15.50;8.77;;;0.80;99.90;;;;;;5093456;28;20079;-62
2022/12/19 04:51:18;;;;;;;19.20;10.23;;;0.80;99.90;;;;;;5097872;28;20497;-66
2022/12/19 04:53:44;;;;;;;13.48;8.52;;;0.80;99.90;;;;;;5099705;28;20067;-64
2022/12/19 04:56:11;;;;;;;16.27;8.93;;;0.80;99.90;;;;;;5096835;28;20055;-63
2022/12/19 04:58:38;;;;;;;15.65;8.68;;;0.80;99.90;;;;;;5091178;28;20047;-64
2022/12/19 05:01:07;;;;;;;15.68;9.10;;;0.80;99.90;;;;;;5099912;28;20048;-63
2022/12/19 05:03:35;;;;;;;17.83;9.55;;;0.90;99.90;;;;;;5098064;28;20566;-66
2022/12/19 05:06:07;;;;;;;13.90;10.30;;;0.90;99.90;;;;;;5101575;28;20077;-63
2022/12/19 05:08:35;;;;;;;16.92;9.93;;;0.90;99.90;;;;;;5087653;28;20526;-67
2022/12/19 05:11:03;;;;;;;16.23;11.82;;;0.90;99.90;;;;;;5098357;28;20048;-63
2022/12/19 05:13:30;;;;;;;11.43;8.93;;;0.90;99.90;;;;;;5093879;28;20055;-62
2022/12/19 05:16:05;;;;;;;20.42;10.50;;;0.90;99.90;;;;;;5097555;28;20066;-65
2022/12/19 05:18:33;;;;;;;18.50;9.48;;;1.00;99.90;;;;;;5099500;28;20100;-62
2022/12/19 05:21:00;;;;;;;16.88;10.60;;;1.00;99.90;;;;;;5095485;28;20048;-66
2022/12/19 05:23:27;;;;;;;17.95;9.75;;;1.00;99.90;;;;;;5101635;28;20090;-62
2022/12/19 05:25:57;;;;;;;14.60;7.63;;;1.00;99.90;;;;;;5097404;28;20071;-62
2022/12/19 05:28:25;;;;;;;17.67;10.10;;;1.00;99.90;;;;;;5099316;28;20048;-62
2022/12/19 05:31:05;;;;;;;16.73;9.38;;;1.00;99.90;;;;;;5076458;28;20220;-62
2022/12/19 05:33:32;;;;;;;17.03;9.67;;;1.10;99.90;;;;;;5096869;28;20124;-63
2022/12/19 05:35:59;;;;;;;13.25;8.80;;;1.10;99.90;;;;;;5097194;28;20169;-63
2022/12/19 05:38:26;;;;;;;13.88;10.02;;;1.10;99.90;;;;;;5095165;28;20179;-61
2022/12/19 05:40:53;;;;;;;17.80;11.27;;;1.10;99.90;;;;;;5094785;28;20400;-63
2022/12/19 05:43:21;;;;;;;18.15;11.45;;;1.20;99.90;;;;;;5097168;28;20051;-62
2022/12/19 05:45:48;;;;;;;20.23;11.43;;;1.10;99.90;;;;;;5098234;28;20126;-63
2022/12/19 05:48:15;;;;;;;12.20;7.95;;;1.20;99.90;;;;;;5094677;28;20685;-62
2022/12/19 05:50:48;;;;;;;12.23;8.65;;;1.20;99.90;;;;;;5088610;28;20040;-62
2022/12/19 05:53:18;;;;;;;15.18;8.98;;;1.20;99.90;;;;;;5096591;28;20035;-62
2022/12/19 05:55:51;;;;;;;18.13;10.77;;;1.20;99.90;;;;;;5096678;28;20043;-62
2022/12/19 05:58:18;;;;;;;14.70;10.23;;;1.20;99.90;;;;;;5099224;28;20135;-62
2022/12/19 06:00:45;;;;;;;21.70;12.15;;;1.20;99.90;;;;;;5091521;28;20040;-62
2022/12/19 06:03:12;;;;;;;19.23;13.05;;;1.20;99.90;;;;;;5088627;28;20070;-62
2022/12/19 06:05:39;;;;;;;16.92;11.80;;;1.20;99.90;;;;;;5096166;28;20052;-63
2022/12/19 06:08:06;;;;;;;20.77;12.50;;;1.10;99.90;;;;;;5095712;28;20050;-62
2022/12/19 06:10:33;;;;;;;21.63;13.88;;;1.10;99.90;;;;;;5091657;28;20492;-65
2022/12/19 06:13:00;;;;;;;16.95;12.82;;;1.20;99.90;;;;;;5090640;28;20107;-64
2022/12/19 06:15:27;;;;;;;23.02;15.82;;;1.10;99.90;;;;;;5093696;28;20054;-64
2022/12/19 06:17:54;;;;;;;17.70;12.07;;;1.10;99.90;;;;;;5092203;28;20079;-64
2022/12/19 06:20:21;;;;;;;19.83;13.10;;;1.10;99.90;;;;;;5080236;28;20561;-62
2022/12/19 06:22:48;;;;;;;15.27;11.07;;;1.10;99.90;;;;;;5090634;28;20044;-62
2022/12/19 06:25:15;;;;;;;22.85;10.63;;;1.10;99.90;;;;;;5093842;28;20051;-64
2022/12/19 06:27:42;;;;;;;16.75;10.43;;;1.10;99.90;;;;;;5093536;28;20072;-65
2022/12/19 06:30:09;;;;;;;15.98;12.07;;;1.20;99.90;;;;;;5072994;28;20501;-64
2022/12/19 06:32:36;;;;;;;16.73;9.07;;;1.20;99.90;;;;;;5090898;28;20055;-64
2022/12/19 06:35:04;;;;;;;23.20;13.02;;;1.10;99.90;;;;;;5090392;28;20127;-66
2022/12/19 06:37:31;;;;;;;18.30;13.70;;;1.10;99.90;;;;;;5092568;28;20047;-62
2022/12/19 06:39:58;;;;;;;22.92;12.50;;;1.10;99.90;;;;;;5092358;28;20048;-63
2022/12/19 06:42:25;;;;;;;17.77;10.98;;;1.10;99.90;;;;;;5091900;28;20051;-66
2022/12/19 06:44:53;;;;;;;18.58;11.88;;;1.10;99.90;;;;;;5094571;27;20055;-63
2022/12/19 06:47:23;;;;;;;18.42;12.07;;;1.10;99.90;;;;;;5096699;28;20059;-63
2022/12/19 06:49:50;;;;;;;24.20;13.27;;;1.10;99.90;;;;;;5092400;28;20424;-63
2022/12/19 06:52:17;;;;;;;18.63;10.88;;;1.10;99.90;;;;;;5094749;28;20143;-64
2022/12/19 06:54:44;;;;;;;18.02;12.23;;;1.00;99.90;;;;;;5094216;28;20086;-62
2022/12/19 06:57:11;;;;;;;19.10;10.88;;;1.10;99.90;;;;;;5099641;28;20043;-62
2022/12/19 06:59:38;;;;;;;16.88;10.43;;;1.10;99.90;;;;;;5099396;28;20150;-66
2022/12/19 07:02:27;;;;;;;18.23;10.98;;;1.10;99.90;;;;;;5098069;28;20047;-64
2022/12/19 07:05:02;;;;;;;21.33;10.80;;;1.00;99.90;;;;;;5089526;28;20050;-64
2022/12/19 07:07:29;;;;;;;19.27;11.95;;;1.00;99.90;;;;;;5093238;28;20048;-62
2022/12/19 07:09:56;;;;;;;22.10;12.68;;;1.00;99.90;;;;;;5090940;28;20044;-63
2022/12/19 07:12:23;;;;;;;24.52;13.60;;;0.90;99.90;;;;;;5091366;28;20083;-66
2022/12/19 07:14:49;;;;;;;21.42;12.60;;;0.90;99.90;;;;;;5093971;28;20138;-64
2022/12/19 07:17:21;;;;;;;18.45;11.88;;;0.90;99.90;;;;;;5093737;28;20134;-64
2022/12/19 07:19:48;;;;;;;21.55;11.20;;;0.80;99.90;;;;;;5091439;28;20489;-67
2022/12/19 07:22:15;;;;;;;22.10;11.48;;;0.80;99.90;;;;;;5087110;28;20356;-63
2022/12/19 07:24:42;;;;;;;16.23;11.15;;;0.80;99.90;;;;;;5095339;28;20048;-63
2022/12/19 07:27:09;;;;;;;24.50;12.43;;;0.70;99.90;;;;;;5094438;28;20551;-64
2022/12/19 07:29:36;;;;;;;19.65;11.90;;;0.60;99.90;;;;;;5094569;28;20044;-64
2022/12/19 07:32:03;;;;;;;23.20;13.18;;;0.60;99.90;;;;;;5092514;28;21867;-64
2022/12/19 07:34:30;;;;;;;24.13;11.90;;;0.50;99.90;;;;;;5091967;28;20712;-69
2022/12/19 07:36:57;;;;;;;22.23;12.48;;;0.50;99.90;;;;;;5091175;28;20044;-63
2022/12/19 07:39:24;;;;;;;22.48;13.07;;;0.50;99.90;;;;;;5092446;28;20048;-63
2022/12/19 07:41:51;;;;;;;24.35;13.85;;;0.40;99.90;;;;;;5095718;28;20043;-69
2022/12/19 07:44:28;;;;;;;23.83;13.68;;;0.40;99.90;;;;;;5077202;28;20076;-64
2022/12/19 07:46:56;;;;;;;25.40;13.27;;;0.40;99.90;;;;;;5095597;28;20859;-64
2022/12/19 07:49:23;;;;;;;28.90;13.70;;;0.40;99.90;;;;;;5097863;28;20149;-64
2022/12/19 07:51:49;;;;;;;19.30;12.25;;;0.40;99.90;;;;;;5094416;28;20158;-64
2022/12/19 07:54:16;;;;;;;25.85;14.73;;;0.40;99.90;;;;;;5091875;28;20043;-70
2022/12/19 07:56:43;;;;;;;25.70;13.48;;;0.40;99.90;;;;;;5091397;28;20048;-64
2022/12/19 07:59:11;;;;;;;19.55;11.98;;;0.40;99.90;;;;;;5092279;28;20085;-65
2022/12/19 08:01:38;;;;;;;21.95;12.60;;;0.40;99.90;;;;;;5089852;28;20042;-66
2022/12/19 08:04:05;;;;;;;21.80;13.50;;;0.40;99.90;;;;;;5081152;28;20051;-63
2022/12/19 08:06:32;;;;;;;26.05;12.95;;;0.40;99.90;;;;;;5097950;28;20127;-65
2022/12/19 08:09:06;;;;;;;21.33;12.38;;;0.30;99.90;;;;;;5092961;28;20367;-64
2022/12/19 08:11:33;;;;;;;24.77;12.68;;;0.30;99.90;;;;;;5100284;28;20050;-65
2022/12/19 08:14:00;;;;;;;27.88;15.27;;;0.30;99.90;;;;;;5093563;28;20724;-65
2022/12/19 08:16:27;;;;;;;29.52;13.85;;;0.30;99.90;;;;;;5096422;28;20053;-63
2022/12/19 08:18:54;;;;;;;24.38;14.73;;;0.30;99.90;;;;;;5094697;28;20097;-63
2022/12/19 08:21:22;;;;;;;22.77;13.07;;;0.20;99.90;;;;;;5103129;28;20044;-63
2022/12/19 08:23:50;;;;;;;25.38;14.85;;;0.20;99.90;;;;;;5097624;28;20054;-69
2022/12/19 08:26:23;;;;;;;25.45;13.35;;;0.20;99.90;;;;;;5095740;28;20104;-64
2022/12/19 08:28:52;;;;;;;24.67;13.38;;;0.10;99.90;;;;;;5098893;28;20051;-65
2022/12/19 08:31:20;;;;;;;28.55;14.35;;;0.10;99.90;;;;;;5096639;28;20092;-63
2022/12/19 08:33:47;;;;;;;25.45;14.52;;;0.10;99.90;;;;;;5098210;28;20079;-64
2022/12/19 08:36:17;;;;;;;31.15;16.13;;;0.10;99.90;;;;;;5099362;28;20044;-65
2022/12/19 08:38:44;;;;;;;;;;;0.10;99.90;;;;;;5095459;28;20050;-63
2022/12/19 08:41:11;;;;;;;24.90;12.50;;;0.00;99.90;;;;;;5094568;28;19929;-66
2022/12/19 08:43:38;;;;;;;30.25;15.85;;;0.00;99.90;;;;;;5101774;28;20083;-65
2022/12/19 08:46:06;;;;;;;25.25;15.95;;;0.00;99.90;;;;;;5098430;28;20070;-66
2022/12/19 08:48:35;;;;;;;27.23;14.43;;;0.00;99.90;;;;;;5095539;28;20047;-66
2022/12/19 08:51:07;;;;;;;28.27;15.90;;;0.00;99.90;;;;;;5095873;28;20135;-63
2022/12/19 08:53:37;;;;;;;31.02;16.13;;;0.00;99.90;;;;;;5096470;28;20059;-64
2022/12/19 08:56:07;;;;;;;30.60;16.08;;;0.00;99.90;;;;;;5095389;28;20132;-65
2022/12/19 08:58:33;;;;;;;35.65;17.10;;;0.10;99.90;;;;;;5093704;28;20544;-64
2022/12/19 09:01:04;;;;;;;30.30;15.63;;;0.00;99.90;;;;;;5099866;28;20040;-67
2022/12/19 09:03:32;;;;;;;33.25;16.55;;;0.10;99.90;;;;;;5098038;28;20097;-65
2022/12/19 09:06:19;;;;;;;33.30;17.02;;;0.10;99.90;;;;;;5096629;28;20440;-64
2022/12/19 09:08:46;;;;;;;33.55;18.27;;;0.10;99.90;;;;;;5097378;28;20128;-63
2022/12/19 09:11:15;;;;;;;30.08;16.38;;;0.20;99.90;;;;;;5101107;28;20089;-67
2022/12/19 09:13:43;;;;;;;34.83;17.13;;;0.10;99.90;;;;;;5076835;28;20112;-66
2022/12/19 09:16:15;;;;;;;37.08;16.83;;;0.20;99.90;;;;;;5095443;28;20059;-64
2022/12/19 09:18:48;;;;;;;31.20;15.43;;;0.20;99.90;;;;;;5097455;28;20031;-63
2022/12/19 09:21:16;;;;;;;35.70;15.23;;;0.20;99.90;;;;;;5100707;28;20042;-63
2022/12/19 09:23:48;;;;;;;34.00;18.00;;;0.30;99.90;;;;;;5096687;28;20078;-63
2022/12/19 09:26:15;;;;;;;36.30;18.42;;;0.30;99.90;;;;;;5096839;28;20630;-63
2022/12/19 09:28:42;;;;;;;29.88;16.35;;;0.40;99.90;;;;;;5089898;28;20047;-63
2022/12/19 09:31:15;;;;;;;32.10;16.10;;;0.40;99.90;;;;;;5094847;28;20048;-63
2022/12/19 09:33:42;;;;;;;34.67;16.38;;;0.40;99.90;;;;;;5093868;28;20544;-64
2022/12/19 09:36:23;;;;;;;30.65;15.80;;;0.50;99.90;;;;;;5096355;28;20035;-63
2022/12/19 09:38:55;;;;;;;35.25;16.75;;;0.50;99.90;;;;;;5093801;28;20458;-63
2022/12/19 09:41:21;;;;;;;35.22;17.15;;;0.50;99.90;;;;;;5094113;28;20062;-63
2022/12/19 09:44:17;;;;;;;27.30;14.82;;;0.50;99.90;;;;;;5092406;28;20044;-65
2022/12/19 09:46:56;;;;;;;35.70;16.33;;;0.50;99.90;;;;;;5058530;28;20147;-63
2022/12/19 09:49:36;;;;;;;29.50;16.70;;;0.50;99.90;;;;;;5097804;28;20744;-66
2022/12/19 09:52:22;;;;;;;26.52;14.90;;;0.50;99.90;;;;;;5098736;28;20058;-67
2022/12/19 09:55:00;;;;;;;34.92;16.77;;;0.50;99.90;;;;;;5096381;28;20154;-65
2022/12/19 09:57:56;;;;;;;27.83;15.60;;;0.60;99.90;;;;;;5091862;28;20059;-65
2022/12/19 10:00:38;;;;;;;26.75;14.15;;;0.60;99.90;;;;;;5092713;28;20120;-66
2022/12/19 10:03:31;;;;;;;36.75;15.20;;;0.60;99.90;;;;;;5096984;28;20132;-64
2022/12/19 10:06:28;;;;;;;34.33;16.73;;;0.60;99.90;;;;;;5095215;28;20055;-64
2022/12/19 10:09:18;;;;;;;24.35;12.88;;;0.60;99.90;;;;;;5094033;28;20040;-64
2022/12/19 10:12:28;;;;;;;26.23;14.40;;;0.60;99.90;;;;;;5098733;28;20088;-63
2022/12/19 10:15:22;;;;;;;26.17;13.10;;;0.70;99.90;;;;;;5099683;27;20047;-63
2022/12/19 10:18:09;;;;;;;29.58;14.50;;;0.70;99.90;;;;;;5095585;28;20040;-67
2022/12/19 10:21:09;;;;;;;29.52;14.13;;;0.70;99.90;;;;;;5087424;28;20082;-68
2022/12/19 10:24:17;;;;;;;27.33;11.85;;;0.80;99.90;;;;;;5103920;28;20395;-66
2022/12/19 10:27:02;;;;;;;28.25;14.52;;;0.80;99.90;;;;;;5090584;28;20461;-64
2022/12/19 10:29:40;;;;;;;25.55;12.52;;;0.80;99.90;;;;;;5092631;28;20486;-64
2022/12/19 10:32:15;;;;;;;24.77;12.45;;;0.80;99.90;;;;;;5098463;28;20062;-69
2022/12/19 10:34:44;;;;;;;30.85;14.18;;;0.80;99.90;;;;;;5089349;28;20113;-64
2022/12/19 10:37:21;;;;;;;28.88;13.10;;;0.80;99.90;;;;;;5093026;28;20044;-63
2022/12/19 10:40:17;;;;;;;27.17;13.13;;;0.80;99.90;;;;;;5095013;28;20056;-64
2022/12/19 10:42:57;;;;;;;24.13;14.45;;;0.80;99.90;;;;;;5092421;28;20356;-65
2022/12/19 10:45:36;;;;;;;29.05;13.70;;;0.80;99.90;;;;;;5094012;28;20040;-63
2022/12/19 10:48:08;;;;;;;29.15;11.55;;;0.80;99.90;;;;;;5091608;28;20122;-67
2022/12/19 10:50:36;;;;;;;21.50;13.45;;;0.80;99.90;;;;;;5090787;28;20039;-68
2022/12/19 10:53:03;;;;;;;23.90;11.00;;;0.80;99.90;;;;;;5097821;28;20067;-63
2022/12/19 10:55:49;;;;;;;24.45;12.88;;;0.80;99.90;;;;;;5095325;28;20120;-64
2022/12/19 10:58:19;;;;;;;29.83;13.32;;;0.80;99.90;;;;;;5095797;28;20412;-63
2022/12/19 11:01:08;;;;;;;29.40;14.32;;;0.80;99.90;;;;;;5095935;28;20100;-66
2022/12/19 11:03:37;;;;;;;23.73;12.57;;;0.80;99.90;;;;;;5086806;28;20532;-66
2022/12/19 11:06:05;;;;;;;25.65;12.00;;;0.80;99.90;;;;;;5095409;28;20459;-65
2022/12/19 11:08:35;;;;;;;23.52;11.18;;;0.80;99.90;;;;;;5092015;28;20196;-66
2022/12/19 11:11:05;;;;;;;29.80;13.60;;;0.90;99.90;;;;;;5093392;28;20074;-65
2022/12/19 11:13:52;;;;;;;28.80;12.75;;;0.90;99.90;;;;;;5100250;28;20288;-66
2022/12/19 11:16:39;;;;;;;24.60;13.80;;;0.90;99.90;;;;;;5095407;28;20489;-64
2022/12/19 11:19:32;;;;;;;27.33;14.80;;;1.00;99.90;;;;;;5097353;28;20048;-67
2022/12/19 11:22:23;;;;;;;21.73;11.85;;;1.00;99.90;;;;;;5089908;28;20063;-63
2022/12/19 11:25:19;;;;;;;19.67;11.95;;;1.00;99.90;;;;;;5094174;28;20873;-63
2022/12/19 11:28:21;;;;;;;27.90;12.98;;;1.00;99.90;;;;;;5097244;28;20052;-61
2022/12/19 11:31:20;;;;;;;21.20;11.70;;;1.00;99.90;;;;;;5090161;28;20067;-62
2022/12/19 11:34:22;;;;;;;25.38;12.85;;;1.10;99.90;;;;;;5093964;28;20055;-65
2022/12/19 11:36:58;;;;;;;25.48;13.10;;;1.00;99.90;;;;;;5090600;28;20072;-63
2022/12/19 11:39:35;;;;;;;27.08;14.50;;;1.10;99.90;;;;;;5092119;28;20048;-62
2022/12/19 11:42:32;;;;;;;23.90;12.38;;;1.10;99.90;;;;;;5094568;28;20497;-67
2022/12/19 11:45:24;;;;;;;26.35;13.77;;;1.10;99.90;;;;;;5100527;28;20066;-63
2022/12/19 11:47:56;;;;;;;20.70;12.13;;;1.10;99.90;;;;;;5100460;28;20074;-63
2022/12/19 11:50:29;;;;;;;27.10;12.40;;;1.10;99.90;;;;;;5097226;28;20047;-65
2022/12/19 11:53:15;;;;;;;28.65;12.18;;;1.10;99.90;;;;;;5098733;28;20529;-63
2022/12/19 11:56:08;;;;;;;25.48;12.90;;;1.10;99.90;;;;;;5102952;28;20139;-66
2022/12/19 11:58:51;;;;;;;25.73;12.70;;;1.10;99.90;;;;;;5096398;28;20048;-65
2022/12/19 12:01:33;;;;;;;26.77;14.00;;;1.10;99.90;;;;;;5103603;28;20116;-62
2022/12/19 12:04:03;;;;;;;28.38;12.40;;;1.20;99.90;;;;;;5100223;28;20063;-64
2022/12/19 12:06:35;;;;;;;22.70;11.75;;;1.20;99.90;;;;;;5092328;28;20508;-65
2022/12/19 12:09:17;;;;;;;22.25;13.55;;;1.20;99.90;;;;;;5098923;28;20051;-63
2022/12/19 12:12:26;;;;;;;29.77;16.25;;;1.20;99.90;;;;;;5099609;28;20051;-64
2022/12/19 12:15:29;;;;;;;31.70;13.23;;;1.20;99.90;;;;;;5092740;27;20047;-63
2022/12/19 12:18:44;;;;;;;25.70;13.68;;;1.20;99.90;;;;;;5099048;28;20493;-67
2022/12/19 12:21:50;;;;;;;23.88;13.70;;;1.30;99.90;;;;;;5099542;28;20078;-68
2022/12/19 12:25:03;;;;;;;28.10;12.52;;;1.30;99.90;;;;;;5077293;28;20128;-65
2022/12/19 12:28:20;;;;;;;26.75;12.77;;;1.30;99.90;;;;;;5101255;28;20108;-63
2022/12/19 12:31:30;;;;;;;26.60;12.38;;;1.30;99.90;;;;;;5076695;28;20598;-63
2022/12/19 12:34:44;;;;;;;26.65;12.38;;;1.30;99.90;;;;;;5095847;28;20063;-62
2022/12/19 12:37:57;;;;;;;24.92;13.63;;;1.20;99.90;;;;;;5098326;28;20143;-64
2022/12/19 12:40:55;;;;;;;30.48;13.88;;;1.20;99.90;;;;;;5092340;28;20143;-62
2022/12/19 12:43:34;;;;;;;26.70;11.45;;;1.20;99.90;;;;;;5102439;28;20051;-63
2022/12/19 12:46:04;;;;;;;26.42;12.57;;;1.20;99.90;;;;;;5095827;28;20158;-64
2022/12/19 12:48:41;;;;;;;26.42;14.70;;;1.20;99.90;;;;;;5096452;28;20904;-65
2022/12/19 12:51:09;;;;;;;23.40;12.88;;;1.10;99.90;;;;;;5096637;28;20044;-64
2022/12/19 12:53:41;;;;;;;24.45;12.55;;;1.10;99.90;;;;;;5097056;28;20079;-64
2022/12/19 12:56:11;;;;;;;33.40;13.93;;;1.10;99.90;;;;;;5097136;28;20055;-66
2022/12/19 12:58:52;;;;;;;24.05;12.77;;;1.00;99.90;;;;;;5096713;28;20472;-66
2022/12/19 13:01:25;;;;;;;27.85;15.43;;;1.00;99.90;;;;;;5101359;28;20048;-63
2022/12/19 13:03:57;;;;;;;23.45;13.23;;;1.00;99.90;;;;;;5103554;28;20054;-64
2022/12/19 13:06:49;;;;;;;29.63;14.10;;;1.00;99.90;;;;;;5099674;28;20059;-63
2022/12/19 13:09:28;;;;;;;25.45;12.93;;;1.00;99.90;;;;;;5099020;28;20040;-62
2022/12/19 13:15:26;;;;;;;23.88;13.70;;;1.00;99.90;;;;;;5100892;28;20046;-64
2022/12/19 13:17:53;;;;;;;31.65;15.10;;;1.10;99.90;;;;;;5094748;28;20052;-64
2022/12/19 13:20:22;;;;;;;29.63;15.00;;;1.00;99.90;;;;;;5093370;28;20150;-63
2022/12/19 13:22:57;;;;;;;23.80;12.80;;;1.10;99.90;;;;;;5095178;28;20135;-63
2022/12/19 13:25:33;;;;;;;26.95;13.05;;;1.10;99.90;;;;;;5098898;28;20709;-63
2022/12/19 13:28:00;;;;;;;27.13;14.63;;;1.00;99.90;;;;;;5092695;28;20044;-63
2022/12/19 13:30:28;;;;;;;31.60;12.75;;;1.00;99.90;;;;;;5092504;28;20458;-63